createdAt,value
2023-05-25T00:01:55.991Z,71.51
2023-05-25T00:04:27.391Z,70.07
2023-05-25T00:06:56.632Z,67.82
2023-05-25T00:09:25.668Z,66.14
2023-05-25T00:11:53.510Z,74.66
2023-05-25T00:14:21.681Z,71.14
2023-05-25T00:16:49.434Z,72.54
2023-05-25T00:19:18.558Z,72.71
2023-05-25T00:21:48.318Z,71.90
2023-05-25T00:24:17.718Z,73.62
2023-05-25T00:26:45.569Z,66.95
2023-05-25T00:29:15.159Z,66.00
2023-05-25T00:31:42.857Z,65.04
2023-05-25T00:34:10.497Z,70.05
2023-05-25T00:36:38.828Z,68.06
2023-05-25T00:39:06.464Z,68.33
2023-05-25T00:41:37.357Z,68.99
2023-05-25T00:44:04.987Z,68.36
2023-05-25T00:46:34.338Z,72.72
2023-05-25T00:49:02.297Z,70.42
2023-05-25T00:51:32.962Z,69.54
2023-05-25T00:54:00.712Z,77.92
2023-05-25T00:56:31.791Z,81.02
2023-05-25T00:59:06.143Z,81.27
2023-05-25T01:01:39.956Z,81.54
2023-05-25T01:04:09.885Z,80.68
2023-05-25T01:06:39.540Z,79.02
2023-05-25T01:09:10.176Z,80.96
2023-05-25T01:11:38.557Z,76.59
2023-05-25T01:14:07.944Z,79.09
2023-05-25T01:16:36.315Z,79.77
2023-05-25T01:19:04.128Z,75.42
2023-05-25T01:21:37.911Z,72.03
2023-05-25T01:24:12.094Z,74.58
2023-05-25T01:26:43.944Z,70.61
2023-05-25T01:31:55.066Z,67.65
2023-05-25T01:34:23.000Z,68.20
2023-05-25T01:36:52.262Z,66.49
2023-05-25T01:39:23.479Z,76.00
2023-05-25T01:41:51.147Z,76.77
2023-05-25T01:44:18.811Z,78.76
2023-05-25T01:46:46.606Z,73.49
2023-05-25T01:49:21.371Z,71.17
2023-05-25T01:51:56.708Z,75.52
2023-05-25T01:54:30.157Z,75.35
2023-05-25T01:57:01.410Z,73.31
2023-05-25T01:59:30.125Z,70.61
2023-05-25T02:01:58.218Z,68.16
2023-05-25T02:04:27.206Z,75.35
2023-05-25T02:06:56.497Z,69.19
2023-05-25T02:09:24.219Z,73.06
2023-05-25T02:11:51.857Z,73.81
2023-05-25T02:14:19.469Z,76.67
2023-05-25T02:16:47.156Z,77.54
2023-05-25T02:19:15.363Z,70.26
2023-05-25T02:21:43.059Z,79.05
2023-05-25T02:24:12.091Z,79.87
2023-05-25T02:26:40.611Z,78.93
2023-05-25T02:29:08.259Z,79.79
2023-05-25T02:31:36.472Z,73.54
2023-05-25T02:34:04.220Z,74.70
2023-05-25T02:36:31.896Z,70.42
2023-05-25T02:38:59.525Z,70.53
2023-05-25T02:41:30.634Z,67.84
2023-05-25T02:43:59.304Z,69.62
2023-05-25T02:46:27.134Z,72.47
2023-05-25T02:48:55.224Z,77.17
2023-05-25T02:51:23.046Z,77.87
2023-05-25T02:53:50.706Z,81.60
2023-05-25T02:56:18.382Z,85.67
2023-05-25T02:58:47.463Z,81.50
2023-05-25T03:01:36.964Z,80.81
2023-05-25T03:04:05.061Z,81.74
2023-05-25T03:06:33.408Z,84.58
2023-05-25T03:09:01.614Z,81.89
2023-05-25T03:11:30.650Z,82.40
2023-05-25T03:13:59.995Z,87.80
2023-05-25T03:16:27.748Z,86.86
2023-05-25T03:18:55.558Z,85.21
2023-05-25T03:21:23.827Z,88.79
2023-05-25T03:23:51.525Z,83.99
2023-05-25T03:26:19.231Z,79.67
2023-05-25T03:28:46.958Z,82.22
2023-05-25T03:31:16.030Z,80.40
2023-05-25T03:33:43.754Z,84.05
2023-05-25T03:36:12.310Z,79.59
2023-05-25T03:38:40.006Z,79.49
2023-05-25T03:41:07.701Z,76.48
2023-05-25T03:43:35.436Z,81.98
2023-05-25T03:46:03.122Z,74.94
2023-05-25T03:48:32.199Z,73.64
2023-05-25T03:51:00.053Z,74.36
2023-05-25T03:53:27.795Z,80.58
2023-05-25T03:55:55.490Z,83.66
2023-05-25T03:58:23.202Z,76.90
2023-05-25T04:00:51.605Z,81.86
2023-05-25T04:03:20.433Z,78.14
2023-05-25T04:05:50.012Z,71.64
2023-05-25T04:08:19.201Z,74.91
2023-05-25T04:10:47.139Z,73.83
2023-05-25T04:13:14.923Z,80.15
2023-05-25T04:15:42.939Z,83.21
2023-05-25T04:18:10.913Z,80.26
2023-05-25T04:20:38.649Z,78.64
2023-05-25T04:23:07.914Z,81.25
2023-05-25T04:25:37.833Z,79.77
2023-05-25T04:28:08.373Z,84.39
2023-05-25T04:30:36.915Z,80.59
2023-05-25T04:33:04.922Z,79.98
2023-05-25T04:35:32.696Z,75.81
2023-05-25T04:38:02.722Z,80.69
2023-05-25T04:40:33.068Z,77.43
2023-05-25T04:43:00.965Z,76.72
2023-05-25T04:45:29.270Z,79.48
2023-05-25T04:47:58.212Z,77.70
2023-05-25T04:50:26.026Z,72.23
2023-05-25T04:52:54.039Z,74.33
2023-05-25T04:55:21.782Z,72.69
2023-05-25T04:57:53.174Z,80.21
2023-05-25T05:00:22.013Z,76.28
2023-05-25T05:02:50.144Z,74.77
2023-05-25T05:05:18.180Z,68.02
2023-05-25T05:07:45.985Z,68.92
2023-05-25T05:10:13.824Z,66.27
2023-05-25T05:12:41.486Z,64.55
2023-05-25T05:15:11.659Z,76.81
2023-05-25T05:17:39.451Z,70.29
2023-05-25T05:20:09.050Z,67.38
2023-05-25T05:22:38.505Z,69.80
2023-05-25T05:25:07.288Z,64.33
2023-05-25T05:27:36.015Z,66.64
2023-05-25T05:30:03.856Z,68.14
2023-05-25T05:32:33.158Z,65.48
2023-05-25T05:35:01.362Z,65.65
2023-05-25T05:37:29.200Z,66.05
2023-05-25T05:39:56.895Z,67.75
2023-05-25T05:42:24.659Z,71.31
2023-05-25T05:44:52.418Z,68.78
2023-05-25T05:47:20.117Z,66.60
2023-05-25T05:49:49.218Z,65.80
2023-05-25T05:52:17.373Z,66.56
2023-05-25T05:54:45.093Z,65.60
2023-05-25T05:57:12.771Z,64.76
2023-05-25T05:59:40.616Z,63.68
2023-05-25T06:02:08.473Z,61.10
2023-05-25T06:04:38.071Z,60.63
2023-05-25T06:07:07.712Z,58.59
2023-05-25T06:09:35.436Z,63.05
2023-05-25T06:12:03.503Z,61.53
2023-05-25T06:14:31.229Z,58.96
2023-05-25T06:16:59.513Z,58.49
2023-05-25T06:19:27.326Z,58.37
2023-05-25T06:21:55.071Z,58.73
2023-05-25T06:24:24.177Z,57.75
2023-05-25T06:26:51.839Z,59.07
2023-05-25T06:29:19.561Z,58.25
2023-05-25T06:31:47.301Z,58.37
2023-05-25T06:34:15.102Z,58.54
2023-05-25T06:36:42.848Z,60.29
2023-05-25T06:39:10.540Z,60.04
2023-05-25T06:41:40.603Z,58.38
2023-05-25T06:44:08.523Z,55.69
2023-05-25T06:46:36.514Z,60.83
2023-05-25T06:49:04.526Z,64.03
2023-05-25T06:51:33.148Z,60.13
2023-05-25T06:54:00.825Z,58.39
2023-05-25T06:56:28.874Z,58.82
2023-05-25T06:58:58.187Z,66.58
2023-05-25T07:01:26.048Z,60.16
2023-05-25T07:03:53.711Z,62.16
2023-05-25T07:06:21.881Z,61.56
2023-05-25T07:08:49.530Z,62.22
2023-05-25T07:11:20.657Z,59.11
2023-05-25T07:13:48.674Z,56.25
2023-05-25T07:16:17.759Z,59.27
2023-05-25T07:18:45.482Z,63.75
2023-05-25T07:21:13.126Z,59.72
2023-05-25T07:23:46.850Z,58.81
2023-05-25T07:26:14.960Z,61.57
2023-05-25T07:28:42.553Z,58.34
2023-05-25T07:31:11.838Z,56.73
2023-05-25T07:33:40.884Z,54.17
2023-05-25T07:36:09.933Z,53.76
2023-05-25T07:38:37.633Z,55.51
2023-05-25T07:41:05.388Z,56.58
2023-05-25T07:46:27.645Z,56.61
2023-05-25T07:48:58.279Z,59.02
2023-05-25T07:51:27.180Z,58.99
2023-05-25T07:53:56.454Z,57.85
2023-05-25T07:56:24.248Z,56.04
2023-05-25T07:58:51.872Z,55.67
2023-05-25T08:01:19.950Z,54.89
2023-05-25T08:03:49.994Z,57.26
2023-05-25T08:06:19.762Z,56.84
2023-05-25T08:08:47.799Z,57.10
2023-05-25T08:11:16.805Z,55.74
2023-05-25T08:13:44.473Z,55.70
2023-05-25T08:16:12.116Z,55.18
2023-05-25T08:18:40.944Z,56.95
2023-05-25T08:21:08.542Z,54.15
2023-05-25T08:23:42.579Z,53.73
2023-05-25T08:26:31.134Z,54.69
2023-05-25T08:28:59.307Z,51.64
2023-05-25T08:31:27.010Z,50.54
2023-05-25T08:33:54.695Z,48.91
2023-05-25T08:36:22.784Z,53.55
2023-05-25T08:38:52.426Z,52.56
2023-05-25T08:41:21.250Z,52.12
2023-05-25T08:43:48.972Z,52.30
2023-05-25T08:46:18.131Z,51.86
2023-05-25T08:48:46.595Z,56.01
2023-05-25T08:51:20.872Z,57.67
2023-05-25T08:53:48.575Z,55.77
2023-05-25T08:56:21.561Z,54.71
2023-05-25T08:58:53.651Z,57.21
2023-05-25T09:01:22.727Z,57.00
2023-05-25T09:03:51.186Z,55.91
2023-05-25T09:06:18.869Z,55.61
2023-05-25T09:08:46.875Z,54.97
2023-05-25T09:11:17.328Z,51.97
2023-05-25T09:13:46.771Z,52.76
2023-05-25T09:16:14.441Z,51.74
2023-05-25T09:18:42.201Z,52.94
2023-05-25T09:21:27.786Z,55.65
2023-05-25T09:23:55.962Z,55.56
2023-05-25T09:26:23.701Z,52.44
2023-05-25T09:28:52.731Z,56.01
2023-05-25T09:31:20.611Z,53.73
2023-05-25T09:33:48.366Z,53.26
2023-05-25T09:36:17.950Z,52.89
2023-05-25T09:38:46.547Z,53.76
2023-05-25T09:41:14.644Z,50.42
2023-05-25T09:43:48.991Z,53.69
2023-05-25T09:46:24.018Z,53.28
2023-05-25T09:48:53.422Z,52.29
2023-05-25T09:51:21.950Z,52.09
2023-05-25T09:53:50.004Z,52.24
2023-05-25T09:56:19.115Z,50.58
2023-05-25T09:58:46.858Z,53.73
2023-05-25T10:01:14.615Z,52.67
2023-05-25T10:03:59.751Z,51.46
2023-05-25T10:06:33.211Z,52.91
2023-05-25T10:09:02.077Z,53.34
2023-05-25T10:11:30.391Z,50.47
2023-05-25T10:14:03.683Z,48.20
2023-05-25T10:16:33.882Z,47.14
2023-05-25T10:19:07.379Z,47.57
2023-05-25T10:21:36.792Z,47.07
2023-05-25T10:24:07.413Z,45.47
2023-05-25T10:26:37.927Z,49.76
2023-05-25T10:29:05.708Z,49.16
2023-05-25T10:31:34.116Z,47.99
2023-05-25T10:34:03.951Z,47.13
2023-05-25T10:36:32.643Z,46.46
2023-05-25T10:39:02.010Z,47.28
2023-05-25T10:41:29.960Z,47.85
2023-05-25T10:43:57.570Z,47.07
2023-05-25T10:46:25.434Z,47.88
2023-05-25T10:48:53.179Z,47.31
2023-05-25T10:51:23.241Z,46.09
2023-05-25T10:54:00.812Z,45.50
2023-05-25T10:56:28.624Z,45.96
2023-05-25T10:59:26.781Z,45.48
2023-05-25T11:04:37.537Z,46.55
2023-05-25T11:07:13.574Z,45.05
2023-05-25T11:09:45.457Z,45.85
2023-05-25T11:12:21.724Z,43.25
2023-05-25T11:15:11.489Z,44.24
2023-05-25T11:17:47.036Z,44.76
2023-05-25T11:20:28.700Z,45.11
2023-05-25T11:22:58.697Z,45.97
2023-05-25T11:25:40.384Z,45.10
2023-05-25T11:28:12.026Z,44.37
2023-05-25T11:30:43.687Z,46.14
2023-05-25T11:33:11.691Z,43.69
2023-05-25T11:35:39.394Z,42.94
2023-05-25T11:38:09.797Z,42.47
2023-05-25T11:40:40.248Z,43.06
2023-05-25T11:43:09.609Z,42.76
2023-05-25T11:45:38.480Z,47.11
2023-05-25T11:48:06.792Z,46.76
2023-05-25T11:50:34.579Z,45.74
2023-05-25T11:53:06.107Z,44.74
2023-05-25T11:55:35.234Z,46.42
2023-05-25T11:58:02.909Z,43.18
2023-05-25T12:00:31.535Z,42.18
2023-05-25T12:02:59.491Z,40.28
2023-05-25T12:05:27.335Z,41.65
2023-05-25T12:07:55.008Z,44.17
2023-05-25T12:10:22.846Z,44.37
2023-05-25T12:12:53.121Z,43.76
2023-05-25T12:15:22.836Z,44.28
2023-05-25T12:17:51.909Z,40.79
2023-05-25T12:20:20.475Z,40.96
2023-05-25T12:22:48.437Z,43.11
2023-05-25T12:25:20.191Z,42.57
2023-05-25T12:27:48.227Z,46.54
2023-05-25T12:30:38.520Z,42.70
2023-05-25T12:33:06.369Z,44.41
2023-05-25T12:38:59.635Z,37.87
2023-05-25T12:41:27.403Z,40.01
2023-05-25T12:43:55.013Z,38.50
2023-05-25T12:46:27.508Z,40.00
2023-05-25T12:48:55.175Z,38.61
2023-05-25T12:51:22.781Z,36.62
2023-05-25T12:53:51.208Z,34.57
2023-05-25T12:56:19.034Z,31.95
2023-05-25T12:58:46.870Z,34.52
2023-05-25T13:01:14.613Z,37.64
2023-05-25T13:03:43.714Z,41.35
2023-05-25T13:06:11.365Z,42.08
2023-05-25T13:08:39.106Z,43.30
2023-05-25T13:11:06.771Z,41.71
2023-05-25T13:13:34.527Z,42.23
2023-05-25T13:16:02.261Z,42.19
2023-05-25T13:18:30.116Z,41.94
2023-05-25T13:21:11.111Z,41.79
2023-05-25T13:23:38.984Z,41.33
2023-05-25T13:26:07.400Z,37.27
2023-05-25T13:28:35.040Z,37.83
2023-05-25T13:31:22.918Z,42.09
2023-05-25T13:33:50.682Z,39.48
2023-05-25T13:36:19.790Z,38.68
2023-05-25T13:38:47.416Z,40.23
2023-05-25T13:41:16.549Z,42.87
2023-05-25T13:43:44.768Z,40.74
2023-05-25T13:46:25.790Z,36.99
2023-05-25T13:49:00.252Z,34.07
2023-05-25T13:51:29.710Z,37.46
2023-05-25T13:53:57.352Z,34.98
2023-05-25T13:56:24.992Z,34.21
2023-05-25T13:58:54.077Z,33.63
2023-05-25T14:01:21.996Z,37.28
2023-05-25T14:03:49.764Z,39.28
2023-05-25T14:06:17.699Z,41.10
2023-05-25T14:08:46.844Z,34.75
2023-05-25T14:13:45.272Z,35.25
2023-05-25T14:18:55.562Z,32.72
2023-05-25T14:21:23.399Z,33.25
2023-05-25T14:23:52.572Z,34.73
2023-05-25T14:26:20.933Z,37.98
2023-05-25T14:28:48.576Z,39.14
2023-05-25T14:31:16.300Z,38.08
2023-05-25T14:33:44.284Z,37.00
2023-05-25T14:36:11.926Z,32.59
2023-05-25T14:38:39.602Z,31.94
2023-05-25T14:41:08.654Z,34.03
2023-05-25T14:43:36.539Z,32.93
2023-05-25T14:46:04.291Z,33.72
2023-05-25T14:48:31.990Z,36.49
2023-05-25T14:51:00.585Z,38.02
2023-05-25T14:53:28.514Z,39.81
2023-05-25T14:55:56.136Z,36.00
2023-05-25T14:58:25.658Z,31.94
2023-05-25T15:00:53.337Z,31.55
2023-05-25T15:03:21.182Z,29.50
2023-05-25T15:05:49.096Z,30.89
2023-05-25T15:08:16.833Z,28.54
2023-05-25T15:10:44.724Z,29.46
2023-05-25T15:13:13.497Z,30.41
2023-05-25T15:15:43.080Z,31.49
2023-05-25T15:18:10.920Z,32.62
2023-05-25T15:20:39.133Z,31.83
2023-05-25T15:23:07.177Z,29.98
2023-05-25T15:25:47.355Z,30.05
2023-05-25T15:28:15.288Z,29.87
2023-05-25T15:30:44.612Z,30.27
2023-05-25T15:33:14.268Z,26.97
2023-05-25T15:35:51.037Z,32.15
2023-05-25T15:38:18.918Z,33.05
2023-05-25T15:40:46.576Z,30.93
2023-05-25T15:43:14.240Z,30.68
2023-05-25T15:45:42.889Z,31.18
2023-05-25T15:48:12.399Z,31.98
2023-05-25T15:50:40.373Z,30.99
2023-05-25T15:53:08.312Z,31.16
2023-05-25T15:55:36.510Z,29.97
2023-05-25T15:58:04.160Z,29.20
2023-05-25T16:00:32.868Z,28.45
2023-05-25T16:03:00.989Z,28.20
2023-05-25T16:05:30.923Z,30.10
2023-05-25T16:07:58.938Z,33.42
2023-05-25T16:10:26.735Z,34.61
2023-05-25T16:12:54.919Z,37.04
2023-05-25T16:15:23.670Z,38.86
2023-05-25T16:17:51.407Z,40.10
2023-05-25T16:20:19.225Z,33.94
2023-05-25T16:22:48.307Z,32.76
2023-05-25T16:25:16.023Z,28.56
2023-05-25T16:27:43.833Z,32.09
2023-05-25T16:30:13.295Z,31.62
2023-05-25T16:32:41.865Z,31.16
2023-05-25T16:35:10.000Z,32.29
2023-05-25T16:37:37.777Z,33.62
2023-05-25T16:40:08.082Z,30.63
2023-05-25T16:42:35.930Z,31.57
2023-05-25T16:45:03.630Z,30.30
2023-05-25T16:47:31.362Z,32.66
2023-05-25T16:49:59.048Z,30.81
2023-05-25T16:52:26.763Z,32.40
2023-05-25T16:54:55.264Z,31.39
2023-05-25T16:57:24.330Z,33.84
2023-05-25T16:59:53.572Z,36.06
2023-05-25T17:02:21.815Z,36.20
2023-05-25T17:04:49.543Z,35.23
2023-05-25T17:07:17.829Z,35.44
2023-05-25T17:09:45.463Z,34.74
2023-05-25T17:12:13.242Z,37.52
2023-05-25T17:14:42.534Z,37.64
2023-05-25T17:17:10.302Z,37.95
2023-05-25T17:19:37.966Z,40.50
2023-05-25T17:22:05.985Z,40.72
2023-05-25T17:24:33.728Z,43.28
2023-05-25T17:27:01.764Z,40.56
2023-05-25T17:29:29.463Z,43.84
2023-05-25T17:31:58.599Z,42.07
2023-05-25T17:34:26.442Z,42.25
2023-05-25T17:36:54.092Z,41.40
2023-05-25T17:39:21.775Z,41.55
2023-05-25T17:41:50.154Z,42.68
2023-05-25T17:44:18.009Z,41.09
2023-05-25T17:46:45.883Z,42.87
2023-05-25T17:49:14.990Z,41.82
2023-05-25T17:51:42.660Z,43.34
2023-05-25T17:54:15.220Z,42.62
2023-05-25T17:56:43.158Z,40.98
2023-05-25T17:59:10.841Z,41.87
2023-05-25T18:01:38.636Z,43.91
2023-05-25T18:04:06.659Z,44.15
2023-05-25T18:06:37.003Z,41.05
2023-05-25T18:09:05.033Z,43.35
2023-05-25T18:11:33.562Z,44.22
2023-05-25T18:14:01.590Z,44.71
2023-05-25T18:16:29.332Z,42.64
2023-05-25T18:18:57.043Z,44.83
2023-05-25T18:21:24.914Z,44.77
2023-05-25T18:23:54.325Z,46.63
2023-05-25T18:26:22.150Z,43.92
2023-05-25T18:29:13.206Z,44.48
2023-05-25T18:31:45.816Z,46.44
2023-05-25T18:34:13.839Z,46.15
2023-05-25T18:36:41.676Z,46.27
2023-05-25T18:39:11.229Z,45.78
2023-05-25T18:41:39.701Z,45.44
2023-05-25T18:44:09.266Z,45.73
2023-05-25T18:46:39.182Z,44.53
2023-05-25T18:49:06.987Z,48.17
2023-05-25T18:51:34.719Z,45.91
2023-05-25T18:54:02.394Z,48.23
2023-05-25T18:56:31.463Z,47.02
2023-05-25T18:58:59.205Z,48.73
2023-05-25T19:01:26.992Z,49.30
2023-05-25T19:03:57.551Z,49.63
2023-05-25T19:06:27.135Z,47.73
2023-05-25T19:08:55.342Z,47.43
2023-05-25T19:11:23.276Z,49.12
2023-05-25T19:13:52.327Z,48.18
2023-05-25T19:16:20.045Z,48.39
2023-05-25T19:18:47.763Z,49.18
2023-05-25T19:21:15.447Z,49.59
2023-05-25T19:23:44.581Z,49.75
2023-05-25T19:26:12.303Z,50.73
2023-05-25T19:28:39.970Z,51.16
2023-05-25T19:31:09.141Z,52.07
2023-05-25T19:33:37.102Z,52.24
2023-05-25T19:36:05.043Z,51.12
2023-05-25T19:38:41.164Z,51.35
2023-05-25T19:41:09.745Z,52.47
2023-05-25T19:43:38.383Z,53.36
2023-05-25T19:46:06.297Z,53.84
2023-05-25T19:48:35.415Z,52.25
2023-05-25T19:51:03.096Z,54.12
2023-05-25T19:53:31.482Z,54.48
2023-05-25T19:55:59.342Z,54.40
2023-05-25T19:58:27.017Z,54.51
2023-05-25T20:00:55.235Z,54.93
2023-05-25T20:03:23.052Z,52.96
2023-05-25T20:05:52.230Z,54.69
2023-05-25T20:08:19.909Z,53.69
2023-05-25T20:10:47.599Z,53.63
2023-05-25T20:13:15.449Z,53.68
2023-05-25T20:15:43.239Z,53.92
2023-05-25T20:18:11.360Z,53.59
2023-05-25T20:20:39.178Z,55.42
2023-05-25T20:23:08.341Z,56.81
2023-05-25T20:25:36.123Z,56.73
2023-05-25T20:28:03.799Z,56.14
2023-05-25T20:30:31.615Z,56.05
2023-05-25T20:32:59.374Z,56.71
2023-05-25T20:35:27.277Z,57.45
2023-05-25T20:37:54.906Z,57.85
2023-05-25T20:40:25.867Z,58.45
2023-05-25T20:42:53.556Z,57.03
2023-05-25T20:45:21.219Z,56.55
2023-05-25T20:47:48.934Z,56.69
2023-05-25T20:50:16.636Z,57.54
2023-05-25T20:52:44.346Z,59.53
2023-05-25T20:55:12.001Z,59.30
2023-05-25T20:57:41.114Z,59.12
2023-05-25T21:00:10.086Z,59.39
2023-05-25T21:02:37.853Z,57.99
2023-05-25T21:05:06.219Z,59.94
2023-05-25T21:07:33.879Z,59.37
2023-05-25T21:10:01.585Z,59.94
2023-05-25T21:12:29.404Z,59.47
2023-05-25T21:14:58.454Z,61.23
2023-05-25T21:17:26.202Z,60.09
2023-05-25T21:19:53.945Z,60.57
2023-05-25T21:22:21.655Z,59.40
2023-05-25T21:24:49.981Z,59.74
2023-05-25T21:27:18.334Z,60.13
2023-05-25T21:29:46.018Z,61.58
2023-05-25T21:32:15.192Z,60.18
2023-05-25T21:34:43.275Z,62.08
2023-05-25T21:37:10.923Z,61.22
2023-05-25T21:39:38.707Z,61.76
2023-05-25T21:42:06.785Z,61.10
2023-05-25T21:44:34.492Z,62.67
2023-05-25T21:47:02.209Z,62.67
2023-05-25T21:49:31.356Z,62.24
2023-05-25T21:51:59.054Z,65.53
2023-05-25T21:54:26.827Z,65.14
2023-05-25T21:56:54.876Z,65.24
2023-05-25T21:59:22.561Z,65.43
2023-05-25T22:01:50.428Z,66.88
2023-05-25T22:04:18.200Z,62.96
2023-05-25T22:06:47.268Z,66.14
2023-05-25T22:09:14.963Z,67.26
2023-05-25T22:11:42.731Z,66.21
2023-05-25T22:14:10.454Z,66.58
2023-05-25T22:16:38.180Z,64.83
2023-05-25T22:19:06.503Z,67.95
2023-05-25T22:21:34.349Z,64.69
2023-05-25T22:24:03.531Z,68.55
2023-05-25T22:26:31.203Z,66.89
2023-05-25T22:28:58.911Z,68.20
2023-05-25T22:31:26.826Z,68.17
2023-05-25T22:33:54.721Z,65.13
2023-05-25T22:36:22.430Z,66.06
2023-05-25T22:38:50.214Z,68.19
2023-05-25T22:41:19.356Z,68.65
2023-05-25T22:43:46.996Z,69.51
2023-05-25T22:46:14.753Z,69.28
2023-05-25T22:48:43.431Z,67.73
2023-05-25T22:51:11.168Z,67.68
2023-05-25T22:53:38.819Z,65.01
2023-05-25T22:56:06.762Z,71.12
2023-05-25T22:58:35.844Z,70.21
2023-05-25T23:01:03.507Z,66.53
2023-05-25T23:03:31.396Z,68.54
2023-05-25T23:05:59.405Z,72.28
2023-05-25T23:08:27.371Z,70.03
2023-05-25T23:10:55.084Z,68.40
2023-05-25T23:13:24.143Z,71.75
2023-05-25T23:15:55.252Z,76.19
2023-05-25T23:18:23.151Z,69.13
2023-05-25T23:20:50.878Z,67.54
2023-05-25T23:23:18.538Z,67.12
2023-05-25T23:25:46.606Z,67.28
2023-05-25T23:28:14.521Z,74.25
2023-05-25T23:30:42.170Z,69.89
2023-05-25T23:33:11.530Z,72.39
2023-05-25T23:35:39.160Z,73.94
2023-05-25T23:38:06.904Z,72.52
2023-05-25T23:40:34.532Z,73.70
2023-05-25T23:43:02.223Z,72.72
2023-05-25T23:45:29.933Z,71.63
2023-05-25T23:47:57.724Z,73.74
2023-05-25T23:50:26.787Z,72.75
2023-05-25T23:52:54.444Z,71.39
2023-05-25T23:55:22.252Z,73.89
2023-05-25T23:57:49.934Z,70.40
